Disclaimer

Please do not use the information listed here in-flight or in-navigation, as they are not provided to us by the airports but are provided by volunteers, so they might be outdated.

Search


Regions


Airport information page

Radio informations:
Aerodrome flight information system (AFIS) - 118.1 MHz

Airport informations:
Latitude: 13° 30' 09.11" N
Longitude: 007° 07' 36.31" E
Elevation: 1240 feet - 378 meters
Operating hours: Remarks
Operating agency: Civil government, landing fees and diplomatic clearance may be required
Timezone: UTC+1
Fuel: N/A

Runway information:
09/27 - 6070 x 98 feet< - >1850 x 30 meters

Recent METARs:
DRRM 131800Z 10004KT CAVOK 29/09 Q1011
DRRM 131800Z 10004KT CAVOK 29/09 Q1011
DRRM 131800Z 10004KT CAVOK 29/09 Q1011

Airport on the map: